Huffman, Texas
Current Conditions -  °F | °C
As of 3:53 PM on Sunday 25 Jan 2015 (Local Time) from KIAH Reporting Station
Scattered Clouds Scattered Clouds  
Wind Chill: 69°   Ceiling: Unl
Heat Index: 69°   Visibility: 10mi
Dew Point: 42°   Wind: 10mph
Humidity: 38%   Direction: 280°W
Pressure: 30.02"   Gusts: NA
Location:  30.03°N, 95.09°W
Report Text: KIAH 252153Z 28009KT 10SM SCT250 21/06 A3002 RMK AO2 SLP165 T02060056
Loading
Personal Weather Stations






























Interactive Weather Map New forecast layout! Learn more

10-Day Weather Forecast

Advertisements
Track Severe Weather on mobile